Time;durP1;ratioP1;P1;durP2;ratioP2;P2;SDS_P1;SDS_P2;PMS_P1;PMS_P2;Temp;Humidity;BMP_temperature;BMP_pressure;BME280_temperature;BME280_humidity;BME280_pressure;Samples;Min_cycle;Max_cycle;Signal;HPM_P1;HPM_P2
2022/09/04 00:00:23;;;;;;;2.95;2.08;;;24.10;45.80;;;;;;5038855;28;20037;-86
2022/09/04 00:03:02;;;;;;;2.78;1.98;;;24.00;46.40;;;;;;5038363;28;20025;-86
2022/09/04 00:05:47;;;;;;;2.88;2.08;;;24.00;45.90;;;;;;5038811;28;20044;-86
2022/09/04 00:08:13;;;;;;;;;;;24.00;45.90;;;;;;5036661;28;20045;-86
2022/09/04 00:11:06;;;;;;;2.92;1.85;;;24.00;45.70;;;;;;5019931;28;19905;-86
2022/09/04 00:14:03;;;;;;;2.60;1.88;;;23.90;45.80;;;;;;5036952;28;20029;-87
2022/09/04 00:17:02;;;;;;;2.92;2.00;;;23.90;46.00;;;;;;5036062;28;20037;-86
2022/09/04 00:19:36;;;;;;;2.83;2.28;;;23.80;46.00;;;;;;5037176;28;20025;-86
2022/09/04 00:22:28;;;;;;;2.67;1.93;;;23.80;46.00;;;;;;5036616;28;20025;-86
2022/09/04 00:25:02;;;;;;;2.45;2.00;;;23.80;46.10;;;;;;5037026;28;20040;-86
2022/09/04 00:27:30;;;;;;;;;;;23.80;46.20;;;;;;5018717;28;20033;-86
2022/09/04 00:30:06;;;;;;;3.13;2.30;;;23.80;46.10;;;;;;5019610;28;19905;-86
2022/09/04 00:32:48;;;;;;;2.83;1.90;;;23.70;46.20;;;;;;5036193;28;20061;-86
2022/09/04 00:35:17;;;;;;;2.53;2.10;;;23.60;46.40;;;;;;5036038;28;20057;-86
2022/09/04 00:38:28;;;;;;;2.90;2.20;;;23.60;46.40;;;;;;5035851;28;20017;-86
2022/09/04 00:41:08;;;;;;;2.30;1.85;;;23.60;46.60;;;;;;5034967;28;20042;-86
2022/09/04 00:43:58;;;;;;;2.75;1.95;;;23.50;46.50;;;;;;5037175;28;20036;-86
2022/09/04 00:46:48;;;;;;;2.88;2.20;;;23.60;46.70;;;;;;5035872;28;20033;-86
2022/09/04 00:49:35;;;;;;;2.67;2.00;;;23.50;46.80;;;;;;5036218;28;20471;-86
2022/09/04 00:52:33;;;;;;;2.97;2.15;;;23.50;46.80;;;;;;5037289;28;20025;-87
2022/09/04 00:55:19;;;;;;;2.22;1.75;;;23.50;46.90;;;;;;5037232;28;20034;-86
2022/09/04 00:58:00;;;;;;;4.13;2.20;;;23.50;46.90;;;;;;5036313;28;20060;-86
2022/09/04 01:00:27;;;;;;;2.65;2.08;;;23.50;47.00;;;;;;5037965;28;20053;-87
2022/09/04 01:02:57;;;;;;;2.70;2.20;;;23.50;47.00;;;;;;5038686;28;20151;-86
2022/09/04 01:05:39;;;;;;;4.25;2.17;;;23.40;47.00;;;;;;5045444;28;20163;-86
2022/09/04 01:08:19;;;;;;;3.38;2.50;;;23.40;47.10;;;;;;5040707;28;20493;-85
2022/09/04 01:11:03;;;;;;;2.33;1.80;;;23.30;47.10;;;;;;5037711;28;20033;-86
2022/09/04 01:13:36;;;;;;;3.00;2.10;;;23.40;47.20;;;;;;5019476;28;20025;-86
2022/09/04 01:16:22;;;;;;;2.95;2.25;;;23.30;47.20;;;;;;5035921;28;20041;-87
2022/09/04 01:19:12;;;;;;;2.45;2.00;;;23.30;47.20;;;;;;5042425;28;20025;-86
2022/09/04 01:22:00;;;;;;;3.70;2.38;;;23.30;47.40;;;;;;5041186;28;20063;-86
2022/09/04 01:25:01;;;;;;;2.70;2.20;;;23.30;47.50;;;;;;5041519;28;20037;-87
2022/09/04 01:27:42;;;;;;;3.53;2.40;;;23.30;47.60;;;;;;5056224;28;20042;-87
2022/09/04 01:30:12;;;;;;;3.65;2.20;;;23.20;47.60;;;;;;5038490;28;20051;-87
2022/09/04 01:33:14;;;;;;;3.05;2.40;;;23.20;47.50;;;;;;5036157;28;20025;-87
2022/09/04 01:35:56;;;;;;;4.30;2.58;;;23.20;47.80;;;;;;5028934;28;20049;-86
2022/09/04 01:38:38;;;;;;;3.20;2.40;;;23.20;47.80;;;;;;5035472;28;20044;-87
2022/09/04 01:41:12;;;;;;;3.30;2.22;;;23.20;47.80;;;;;;5036888;28;20095;-85
2022/09/04 01:43:39;;;;;;;4.00;2.58;;;23.10;47.90;;;;;;5036154;28;20033;-87
2022/09/04 01:46:23;;;;;;;3.53;2.22;;;23.10;47.80;;;;;;5035919;28;20029;-86
2022/09/04 01:49:07;;;;;;;3.25;2.38;;;23.10;48.00;;;;;;5035496;28;20064;-86
2022/09/04 01:51:42;;;;;;;3.88;2.80;;;23.10;47.90;;;;;;5036330;28;20057;-87
2022/09/04 01:54:22;;;;;;;3.28;2.47;;;23.00;48.00;;;;;;5037778;28;20078;-87
2022/09/04 01:57:09;;;;;;;2.90;2.17;;;23.10;48.10;;;;;;5021394;28;20040;-87
2022/09/04 02:00:07;;;;;;;3.72;2.38;;;23.00;48.10;;;;;;5036488;28;20040;-87
2022/09/04 02:02:48;;;;;;;2.92;2.35;;;23.00;48.20;;;;;;5035137;28;20129;-87
2022/09/04 02:05:55;;;;;;;2.95;2.13;;;23.00;48.80;;;;;;5047506;28;20081;-87
2022/09/04 02:09:10;;;;;;;3.15;2.00;;;23.00;48.30;;;;;;5048396;28;20037;-87
2022/09/04 02:11:47;;;;;;;3.15;2.40;;;22.90;48.30;;;;;;5048305;28;20041;-87
2022/09/04 02:14:21;;;;;;;2.80;2.30;;;22.90;48.20;;;;;;5051845;28;20057;-87
2022/09/04 02:16:46;;;;;;;3.20;2.13;;;22.90;48.30;;;;;;5053768;28;20034;-86
2022/09/04 02:19:40;;;;;;;3.92;2.45;;;22.90;48.40;;;;;;5024205;28;20117;-86
2022/09/04 02:22:11;;;;;;;4.18;2.42;;;22.80;48.50;;;;;;5038567;28;20548;-87
2022/09/04 02:24:56;;;;;;;3.38;2.38;;;22.80;48.40;;;;;;5034208;28;20132;-87
2022/09/04 02:27:30;;;;;;;3.47;2.63;;;22.80;48.50;;;;;;5033638;28;20034;-87
2022/09/04 02:30:12;;;;;;;3.47;2.15;;;22.80;48.50;;;;;;5017513;28;20030;-86
2022/09/04 02:33:10;;;;;;;3.20;2.33;;;22.80;48.60;;;;;;5034000;28;20052;-86
2022/09/04 02:35:42;;;;;;;2.42;2.00;;;22.80;48.60;;;;;;5033979;28;20033;-87
2022/09/04 02:38:23;;;;;;;4.20;2.72;;;22.80;48.90;;;;;;5033478;28;20029;-86
2022/09/04 02:41:01;;;;;;;3.47;2.58;;;22.70;48.60;;;;;;5033593;28;20049;-86
2022/09/04 02:43:45;;;;;;;3.25;2.40;;;22.60;48.60;;;;;;5033541;28;20033;-87
2022/09/04 02:46:35;;;;;;;3.97;2.22;;;22.70;48.70;;;;;;5033818;28;20033;-87
2022/09/04 02:49:14;;;;;;;3.08;2.15;;;22.60;48.70;;;;;;5033019;28;20497;-87
2022/09/04 02:52:00;;;;;;;2.63;2.15;;;22.60;48.60;;;;;;5033967;28;20493;-87
2022/09/04 02:54:57;;;;;;;3.67;2.50;;;22.60;48.80;;;;;;5035079;28;20040;-87
2022/09/04 02:57:53;;;;;;;3.03;2.30;;;22.60;49.00;;;;;;5033327;28;20091;-87
2022/09/04 03:00:21;;;;;;;3.13;2.42;;;22.50;49.00;;;;;;5034105;28;20454;-86
2022/09/04 03:02:59;;;;;;;3.28;2.35;;;22.50;48.90;;;;;;5017035;28;20066;-86
2022/09/04 03:05:33;;;;;;;2.65;2.40;;;22.50;49.10;;;;;;5033998;28;20113;-86
2022/09/04 03:08:07;;;;;;;3.15;2.20;;;22.50;49.10;;;;;;5033712;28;20061;-87
2022/09/04 03:10:56;;;;;;;3.70;2.50;;;22.50;49.10;;;;;;5033972;28;20444;-86
2022/09/04 03:13:39;;;;;;;2.65;2.17;;;22.50;49.80;;;;;;5033588;28;20482;-87
2022/09/04 03:16:20;;;;;;;4.15;2.75;;;22.40;49.20;;;;;;5033476;28;20045;-87
2022/09/04 03:19:09;;;;;;;3.35;2.05;;;22.40;49.20;;;;;;5033476;28;20029;-87
2022/09/04 03:22:03;;;;;;;3.45;2.50;;;22.40;49.30;;;;;;5033841;28;20037;-86
2022/09/04 03:24:32;;;;;;;3.22;2.22;;;22.40;49.30;;;;;;5034003;28;20036;-87
2022/09/04 03:27:05;;;;;;;3.60;2.53;;;22.30;49.20;;;;;;5033805;28;20037;-86
2022/09/04 03:29:43;;;;;;;3.08;2.47;;;22.30;49.40;;;;;;5033097;28;20060;-87
2022/09/04 03:32:41;;;;;;;3.42;2.53;;;22.30;49.50;;;;;;5016768;28;20029;-87
2022/09/04 03:35:38;;;;;;;3.17;2.63;;;22.30;49.60;;;;;;5032354;28;20045;-86
2022/09/04 03:38:17;;;;;;;2.78;2.05;;;22.30;49.60;;;;;;5034782;28;20036;-87
2022/09/04 03:41:17;;;;;;;4.20;2.70;;;22.20;50.20;;;;;;5032945;28;20480;-87
2022/09/04 03:44:00;;;;;;;3.25;2.47;;;22.20;49.70;;;;;;5033078;28;20091;-87
2022/09/04 03:46:55;;;;;;;3.60;2.65;;;22.20;49.70;;;;;;5033328;28;20064;-87
2022/09/04 03:49:26;;;;;;;3.83;2.53;;;22.20;49.80;;;;;;5033223;28;20124;-87
2022/09/04 03:52:18;;;;;;;2.88;2.35;;;22.10;49.60;;;;;;5033172;28;20034;-87
2022/09/04 03:54:59;;;;;;;3.80;2.50;;;22.10;49.80;;;;;;5032898;28;20109;-87
2022/09/04 03:57:30;;;;;;;3.58;2.70;;;22.10;49.80;;;;;;5034351;28;20183;-86
2022/09/04 04:00:11;;;;;;;3.42;2.70;;;22.10;49.80;;;;;;5033658;28;20036;-87
2022/09/04 04:02:45;;;;;;;3.30;2.47;;;22.10;49.90;;;;;;5037490;28;20156;-86
2022/09/04 04:05:39;;;;;;;3.08;2.60;;;22.10;49.90;;;;;;5037583;28;20462;-86
2022/09/04 04:08:44;;;;;;;2.50;2.22;;;22.00;50.00;;;;;;5036540;28;20033;-86
2022/09/04 04:11:38;;;;;;;3.63;2.63;;;22.00;50.10;;;;;;5036366;28;20497;-87
2022/09/04 04:14:37;;;;;;;3.47;2.60;;;22.00;50.10;;;;;;5036456;28;20454;-87
2022/09/04 04:17:32;;;;;;;3.50;2.63;;;21.90;50.00;;;;;;5037545;28;20037;-87
2022/09/04 04:20:37;;;;;;;3.33;2.67;;;21.90;50.10;;;;;;5037491;28;20584;-86
2022/09/04 04:23:28;;;;;;;2.87;2.30;;;21.90;50.20;;;;;;5036117;28;20045;-87
2022/09/04 04:26:06;;;;;;;3.60;2.80;;;21.90;50.30;;;;;;5040570;28;20030;-87
2022/09/04 04:28:58;;;;;;;3.88;2.67;;;21.80;50.10;;;;;;5039549;28;20506;-87
2022/09/04 04:32:10;;;;;;;3.08;2.47;;;21.80;50.30;;;;;;5037845;28;20485;-86
2022/09/04 04:34:52;;;;;;;3.25;2.45;;;21.80;50.40;;;;;;5037254;28;20033;-87
2022/09/04 04:37:45;;;;;;;3.78;2.63;;;21.80;50.40;;;;;;5037568;28;20030;-86
2022/09/04 04:40:25;;;;;;;3.95;2.83;;;21.70;50.40;;;;;;5036766;28;20103;-87
2022/09/04 04:42:56;;;;;;;3.15;2.60;;;21.70;50.50;;;;;;5036814;28;20068;-86
2022/09/04 04:48:28;;;;;;;3.70;2.75;;;21.70;50.60;;;;;;5037304;28;20033;-87
2022/09/04 04:51:39;;;;;;;3.20;2.33;;;21.70;50.70;;;;;;5035578;28;20029;-87
2022/09/04 04:54:42;;;;;;;4.13;2.90;;;21.70;50.60;;;;;;5043169;28;20029;-87
2022/09/04 04:57:17;;;;;;;4.25;2.75;;;21.70;50.70;;;;;;5035874;28;20033;-86
2022/09/04 04:59:54;;;;;;;3.72;2.85;;;21.60;50.60;;;;;;5035792;28;20029;-87
2022/09/04 05:02:33;;;;;;;3.78;2.78;;;21.60;50.70;;;;;;5035801;28;20038;-87
2022/09/04 05:05:11;;;;;;;3.85;2.97;;;21.60;50.80;;;;;;5037131;28;20033;-87
2022/09/04 05:07:59;;;;;;;3.85;2.80;;;21.60;50.80;;;;;;5039203;28;20030;-87
2022/09/04 05:10:31;;;;;;;3.58;2.60;;;21.60;50.90;;;;;;5020509;28;20037;-87
2022/09/04 05:13:03;;;;;;;3.28;2.60;;;21.50;50.90;;;;;;5034707;28;20160;-87
2022/09/04 05:15:46;;;;;;;3.92;2.95;;;21.50;51.00;;;;;;5034848;28;20030;-86
2022/09/04 05:18:32;;;;;;;4.30;2.90;;;21.50;51.00;;;;;;5035415;28;20029;-87
2022/09/04 05:21:29;;;;;;;3.33;2.50;;;21.50;51.00;;;;;;5035103;28;20048;-86
2022/09/04 05:24:09;;;;;;;3.80;2.70;;;21.50;51.00;;;;;;5035969;28;20026;-87
2022/09/04 05:26:35;;;;;;;3.72;2.70;;;21.50;51.10;;;;;;5035261;28;20057;-86
2022/09/04 05:29:09;;;;;;;4.25;2.90;;;21.50;51.00;;;;;;5018227;28;20116;-87
2022/09/04 05:31:53;;;;;;;3.35;2.65;;;21.50;51.10;;;;;;5035137;28;20124;-86
2022/09/04 05:34:35;;;;;;;3.88;2.45;;;21.50;51.20;;;;;;5018749;28;20030;-86
2022/09/04 05:37:21;;;;;;;4.05;3.00;;;21.40;51.10;;;;;;5035010;28;20033;-87
2022/09/04 05:40:12;;;;;;;3.50;2.65;;;21.40;51.20;;;;;;5034826;28;20094;-87
2022/09/04 05:42:53;;;;;;;3.97;2.90;;;21.40;51.30;;;;;;5034747;28;20080;-87
2022/09/04 05:45:56;;;;;;;3.83;2.67;;;21.40;51.40;;;;;;5034461;28;20036;-87
2022/09/04 05:49:04;;;;;;;3.58;2.83;;;21.30;51.50;;;;;;5034577;28;20038;-86
2022/09/04 05:51:54;;;;;;;3.55;2.67;;;21.30;51.50;;;;;;5034457;28;20133;-86
2022/09/04 05:54:52;;;;;;;3.33;2.65;;;21.30;51.60;;;;;;5035580;28;20044;-87
2022/09/04 05:57:22;;;;;;;3.80;2.60;;;21.30;51.60;;;;;;5034612;28;20162;-87
2022/09/04 06:00:00;;;;;;;4.25;2.90;;;21.30;51.60;;;;;;5035458;28;20029;-87
2022/09/04 06:02:57;;;;;;;3.67;2.83;;;21.30;51.70;;;;;;5034996;28;20041;-86
2022/09/04 06:05:54;;;;;;;3.00;2.40;;;21.30;51.80;;;;;;5034603;28;20029;-86
2022/09/04 06:08:38;;;;;;;3.50;2.72;;;21.30;51.80;;;;;;5034578;28;20045;-87
2022/09/04 06:11:41;;;;;;;4.40;2.57;;;21.20;51.60;;;;;;5034867;28;20029;-86
2022/09/04 06:14:19;;;;;;;4.10;2.90;;;21.30;51.80;;;;;;5034935;28;20037;-87
2022/09/04 06:17:09;;;;;;;3.80;3.03;;;21.30;51.90;;;;;;5034835;28;20033;-87
2022/09/04 06:19:47;;;;;;;4.10;2.75;;;21.20;51.90;;;;;;5034549;28;20029;-87
2022/09/04 06:22:25;;;;;;;3.35;2.70;;;21.30;51.90;;;;;;5035127;28;20083;-86
2022/09/04 06:25:19;;;;;;;4.35;2.85;;;21.20;51.90;;;;;;5035859;28;20048;-87
2022/09/04 06:27:53;;;;;;;4.15;2.80;;;21.20;52.00;;;;;;5034544;28;20096;-86
2022/09/04 06:30:19;;;;;;;3.70;2.75;;;21.20;51.90;;;;;;5039041;28;20029;-87
2022/09/04 06:32:48;;;;;;;4.38;2.78;;;21.20;52.00;;;;;;5045451;28;20036;-87
2022/09/04 06:35:31;;;;;;;3.92;2.92;;;21.20;52.00;;;;;;5048412;28;20029;-87
2022/09/04 06:38:24;;;;;;;3.22;2.55;;;21.20;52.10;;;;;;5040972;28;20018;-86
2022/09/04 06:41:07;;;;;;;3.15;2.42;;;21.20;52.10;;;;;;5039578;28;20049;-87
2022/09/04 06:43:42;;;;;;;3.50;2.80;;;21.20;52.00;;;;;;5035531;28;20037;-86
2022/09/04 06:46:13;;;;;;;;;;;21.20;52.10;;;;;;5035169;28;20462;-86
2022/09/04 06:49:04;;;;;;;2.80;2.28;;;21.20;51.90;;;;;;5034341;28;19917;-85
2022/09/04 06:51:43;;;;;;;3.05;2.53;;;21.20;52.10;;;;;;5035545;28;20055;-86
2022/09/04 06:54:34;;;;;;;2.83;2.33;;;21.20;52.10;;;;;;5034080;28;20093;-85
2022/09/04 06:57:12;;;;;;;2.88;2.10;;;21.20;52.30;;;;;;5017690;28;20123;-87
2022/09/04 06:59:55;;;;;;;3.17;2.40;;;21.20;52.20;;;;;;5034002;28;20030;-86
2022/09/04 07:02:49;;;;;;;4.00;2.60;;;21.20;52.90;;;;;;5033510;28;20027;-86
2022/09/04 07:05:43;;;;;;;3.33;2.78;;;21.20;52.30;;;;;;5033529;28;20041;-87
2022/09/04 07:08:46;;;;;;;4.35;2.55;;;21.20;52.20;;;;;;5032589;28;20045;-87
2022/09/04 07:11:47;;;;;;;3.13;2.10;;;21.30;52.30;;;;;;5034391;28;20025;-87
2022/09/04 07:14:44;;;;;;;3.22;2.38;;;21.30;52.30;;;;;;5017093;28;20073;-88
2022/09/04 07:17:52;;;;;;;3.13;2.30;;;21.30;52.30;;;;;;5035097;28;20080;-87
2022/09/04 07:20:50;;;;;;;3.08;2.25;;;21.30;52.40;;;;;;5048220;28;20041;-87
2022/09/04 07:23:36;;;;;;;3.38;2.35;;;21.30;52.40;;;;;;5034452;28;20025;-87
2022/09/04 07:26:27;;;;;;;3.00;2.25;;;21.30;52.30;;;;;;5034213;28;20048;-87
2022/09/04 07:29:05;;;;;;;3.00;2.30;;;21.40;52.50;;;;;;5034341;28;20060;-85
2022/09/04 07:31:53;;;;;;;2.53;2.00;;;21.40;52.50;;;;;;5034862;28;20063;-86
2022/09/04 07:34:39;;;;;;;2.88;2.30;;;21.40;52.50;;;;;;5034084;28;20030;-87
2022/09/04 07:37:32;;;;;;;2.92;2.40;;;21.40;52.50;;;;;;5038194;28;20025;-86
2022/09/04 07:40:11;;;;;;;3.38;2.50;;;21.50;52.50;;;;;;5038580;28;20045;-86
2022/09/04 07:42:58;;;;;;;4.78;2.35;;;21.50;52.50;;;;;;5037162;28;20067;-87
2022/09/04 07:45:46;;;;;;;2.47;2.00;;;21.50;52.40;;;;;;5037516;28;20068;-87
2022/09/04 07:48:27;;;;;;;3.30;2.30;;;21.50;52.50;;;;;;5037718;28;20099;-87
2022/09/04 07:51:03;;;;;;;3.45;2.22;;;21.60;52.50;;;;;;5038480;28;20025;-87
2022/09/04 07:53:41;;;;;;;2.42;1.95;;;21.60;52.50;;;;;;5039144;28;20458;-88
2022/09/04 07:56:41;;;;;;;3.63;2.30;;;21.60;52.60;;;;;;5037949;28;20070;-87
2022/09/04 07:59:44;;;;;;;2.75;2.13;;;21.60;52.60;;;;;;5036789;28;20025;-87
2022/09/04 08:02:36;;;;;;;4.15;2.40;;;21.60;52.70;;;;;;5037022;28;20040;-87
2022/09/04 08:05:22;;;;;;;2.30;2.03;;;21.70;52.70;;;;;;5038835;28;20030;-87
2022/09/04 08:08:12;;;;;;;3.60;2.55;;;21.70;52.80;;;;;;5038016;28;20082;-87
2022/09/04 08:11:21;;;;;;;2.83;2.33;;;21.70;52.80;;;;;;5037674;28;20070;-86
2022/09/04 08:14:08;;;;;;;2.67;2.00;;;21.80;52.90;;;;;;5020122;28;20513;-86
2022/09/04 08:16:55;;;;;;;3.70;2.60;;;21.80;52.80;;;;;;5039125;28;20037;-86
2022/09/04 08:19:54;;;;;;;2.80;2.15;;;21.80;52.70;;;;;;5040146;28;20033;-87
2022/09/04 08:22:55;;;;;;;2.35;1.90;;;21.80;52.80;;;;;;5039991;28;20025;-87
2022/09/04 08:25:45;;;;;;;2.88;2.30;;;21.80;52.80;;;;;;5037682;28;20124;-87
2022/09/04 08:28:32;;;;;;;2.78;2.40;;;21.80;52.70;;;;;;5037500;28;20033;-85
2022/09/04 08:31:28;;;;;;;3.03;2.30;;;21.90;52.70;;;;;;5036333;28;20525;-87
2022/09/04 08:34:24;;;;;;;3.20;2.38;;;21.90;52.80;;;;;;5036968;28;20135;-86
2022/09/04 08:36:53;;;;;;;3.17;2.22;;;22.00;52.80;;;;;;5036004;28;20029;-86
2022/09/04 08:39:51;;;;;;;2.78;2.20;;;22.00;52.60;;;;;;5035686;28;20397;-86
2022/09/04 08:42:32;;;;;;;4.40;2.47;;;22.00;52.70;;;;;;5036003;28;20172;-86
2022/09/04 08:45:42;;;;;;;2.92;2.10;;;22.10;52.60;;;;;;5035588;28;20063;-87
2022/09/04 08:48:45;;;;;;;2.92;2.22;;;22.20;52.50;;;;;;5033803;28;20045;-88
2022/09/04 08:51:33;;;;;;;3.58;2.38;;;22.20;52.40;;;;;;5018091;28;20053;-85
2022/09/04 08:54:21;;;;;;;2.55;2.05;;;22.30;52.20;;;;;;5033619;28;20075;-85
2022/09/04 08:57:19;;;;;;;4.13;2.28;;;22.40;52.20;;;;;;5035495;28;20038;-87
2022/09/04 09:00:00;;;;;;;3.00;2.10;;;22.40;52.00;;;;;;5030743;28;20120;-87
2022/09/04 09:02:41;;;;;;;2.45;2.00;;;22.50;52.00;;;;;;5035397;28;20061;-87
2022/09/04 09:05:28;;;;;;;2.63;2.13;;;22.50;52.00;;;;;;5035150;28;20029;-87
2022/09/04 09:08:19;;;;;;;2.53;1.95;;;22.60;51.90;;;;;;5035924;28;20026;-87
2022/09/04 09:10:48;;;;;;;3.00;2.20;;;22.70;52.00;;;;;;5035646;28;20136;-88
2022/09/04 09:13:55;;;;;;;2.30;1.95;;;22.80;51.90;;;;;;5035276;28;20052;-87
2022/09/04 09:16:41;;;;;;;2.92;2.03;;;22.80;52.00;;;;;;5034916;28;20069;-87
2022/09/04 09:19:50;;;;;;;2.63;2.00;;;22.90;51.90;;;;;;5036597;28;20041;-87
2022/09/04 09:22:39;;;;;;;3.47;2.15;;;23.00;52.00;;;;;;5017734;28;20033;-87
2022/09/04 09:25:21;;;;;;;2.85;2.15;;;23.10;51.90;;;;;;5035022;28;20029;-86
2022/09/04 09:28:18;;;;;;;2.67;2.05;;;23.20;51.90;;;;;;5036135;28;20037;-86
2022/09/04 09:31:09;;;;;;;2.70;2.10;;;23.30;51.90;;;;;;5034812;28;20039;-87
2022/09/04 09:34:10;;;;;;;2.35;1.90;;;23.40;51.90;;;;;;5036290;28;20049;-86
2022/09/04 09:37:07;;;;;;;2.78;1.90;;;23.50;52.10;;;;;;5034969;28;20040;-86
2022/09/04 09:39:49;;;;;;;2.10;1.80;;;23.60;52.10;;;;;;5034271;28;20057;-86
2022/09/04 09:42:41;;;;;;;2.20;1.80;;;23.70;52.10;;;;;;5034518;28;20040;-86
2022/09/04 09:45:38;;;;;;;2.28;1.88;;;23.80;52.10;;;;;;5017271;28;20456;-87
2022/09/04 09:48:31;;;;;;;2.28;1.80;;;23.90;52.40;;;;;;5034715;28;20033;-87
2022/09/04 09:51:33;;;;;;;2.10;1.80;;;24.00;52.50;;;;;;5034882;28;20029;-87
2022/09/04 09:54:39;;;;;;;1.92;1.60;;;24.20;52.40;;;;;;5035531;28;20041;-88
2022/09/04 09:57:41;;;;;;;2.25;1.75;;;24.20;52.40;;;;;;5035182;28;20030;-88
2022/09/04 10:00:54;;;;;;;3.08;1.63;;;24.40;52.60;;;;;;5035131;28;20048;-88
2022/09/04 10:03:58;;;;;;;2.30;1.73;;;24.50;52.70;;;;;;5005010;28;20138;-86
2022/09/04 10:06:51;;;;;;;1.58;1.40;;;24.60;52.80;;;;;;5035065;28;20033;-87
2022/09/04 10:09:33;;;;;;;2.03;1.50;;;24.70;52.90;;;;;;5018645;28;20037;-87
2022/09/04 10:12:33;;;;;;;1.63;1.52;;;24.80;53.10;;;;;;5035412;28;20030;-87
2022/09/04 10:15:08;;;;;;;1.73;1.60;;;24.90;53.30;;;;;;5039931;28;20470;-86
2022/09/04 10:18:12;;;;;;;1.90;1.70;;;25.10;53.40;;;;;;5035417;28;20037;-87
2022/09/04 10:21:11;;;;;;;1.90;1.67;;;25.10;53.70;;;;;;5019743;28;20029;-87
2022/09/04 10:23:57;;;;;;;1.98;1.60;;;25.30;53.60;;;;;;5034592;28;20048;-88
2022/09/04 10:27:00;;;;;;;1.73;1.55;;;25.40;53.70;;;;;;5035022;28;20033;-87
2022/09/04 10:29:38;;;;;;;2.30;1.70;;;25.50;53.80;;;;;;5034064;28;20093;-87
2022/09/04 10:32:12;;;;;;;1.75;1.58;;;25.70;53.90;;;;;;5033758;28;20030;-87
2022/09/04 10:34:54;;;;;;;2.10;1.55;;;25.70;54.10;;;;;;5033384;28;20026;-86
2022/09/04 10:38:00;;;;;;;1.73;1.60;;;25.80;54.20;;;;;;5035360;28;20109;-87
2022/09/04 10:41:13;;;;;;;2.63;1.80;;;26.00;54.60;;;;;;5033805;28;20068;-86
2022/09/04 10:44:01;;;;;;;1.83;1.50;;;26.10;54.50;;;;;;5034497;28;20026;-86
2022/09/04 10:46:34;;;;;;;1.63;1.52;;;26.20;54.60;;;;;;5034613;28;20040;-87
2022/09/04 10:49:26;;;;;;;2.13;1.52;;;26.30;54.50;;;;;;5033568;28;20044;-87
2022/09/04 10:52:11;;;;;;;1.70;1.60;;;26.40;54.30;;;;;;5034128;28;20048;-88
2022/09/04 10:54:53;;;;;;;2.53;1.75;;;26.50;54.10;;;;;;5041908;28;20030;-87
2022/09/04 10:57:36;;;;;;;2.08;1.65;;;26.60;54.20;;;;;;5045000;28;20029;-87
2022/09/04 11:00:15;;;;;;;1.60;1.50;;;26.70;54.40;;;;;;5041505;28;20029;-87
2022/09/04 11:02:49;;;;;;;1.70;1.50;;;26.80;54.50;;;;;;5037253;28;20057;-88
2022/09/04 11:05:51;;;;;;;1.70;1.60;;;26.90;54.70;;;;;;5035171;28;20427;-87
2022/09/04 11:08:39;;;;;;;1.70;1.50;;;27.00;55.00;;;;;;5017233;28;20540;-87
2022/09/04 11:11:30;;;;;;;1.48;1.38;;;27.10;55.00;;;;;;5032471;28;20022;-87
2022/09/04 11:14:47;;;;;;;1.92;1.50;;;27.20;55.10;;;;;;5032958;28;20036;-87
2022/09/04 11:17:41;;;;;;;1.60;1.42;;;27.20;55.10;;;;;;5031414;28;20032;-85
2022/09/04 11:20:43;;;;;;;1.48;1.38;;;27.30;55.00;;;;;;5015386;28;20056;-86
2022/09/04 11:23:21;;;;;;;2.00;1.42;;;27.40;55.10;;;;;;5015727;28;20128;-86
2022/09/04 11:26:04;;;;;;;1.65;1.50;;;27.50;55.10;;;;;;5033071;28;20034;-86
2022/09/04 11:29:11;;;;;;;1.85;1.38;;;27.50;55.00;;;;;;5034598;28;20042;-85
2022/09/04 11:31:56;;;;;;;1.90;1.45;;;27.50;55.20;;;;;;5038882;28;20025;-86
2022/09/04 11:34:55;;;;;;;2.03;1.60;;;27.60;55.20;;;;;;5043621;28;20032;-86
2022/09/04 11:37:55;;;;;;;2.00;1.48;;;27.70;55.40;;;;;;5034678;28;20037;-86
2022/09/04 11:41:00;;;;;;;1.52;1.30;;;27.80;55.50;;;;;;5032135;28;20049;-86
2022/09/04 11:44:09;;;;;;;1.33;1.23;;;27.80;55.40;;;;;;5033286;28;20055;-87
2022/09/04 11:46:48;;;;;;;1.52;1.30;;;27.90;55.50;;;;;;5032449;28;20088;-86
2022/09/04 11:50:13;;;;;;;1.52;1.42;;;27.90;55.20;;;;;;5032800;28;20030;-86
2022/09/04 11:52:47;;;;;;;1.35;1.25;;;28.00;55.40;;;;;;5033878;28;20083;-86
2022/09/04 11:55:47;;;;;;;1.40;1.30;;;28.00;55.70;;;;;;5034124;28;20068;-86
2022/09/04 11:58:31;;;;;;;1.60;1.48;;;28.00;55.10;;;;;;5034045;28;20029;-87
2022/09/04 12:01:16;;;;;;;;;;;28.10;54.90;;;;;;5033687;28;20034;-86
2022/09/04 12:04:00;;;;;;;1.30;1.10;;;28.10;54.80;;;;;;5032236;28;19959;-85
2022/09/04 12:07:07;;;;;;;1.80;1.30;;;28.20;54.60;;;;;;5032149;28;20029;-86
2022/09/04 12:10:07;;;;;;;1.05;1.00;;;28.20;54.70;;;;;;5032747;28;20052;-86
2022/09/04 12:13:15;;;;;;;1.20;1.10;;;28.20;54.60;;;;;;5033399;28;20044;-86
2022/09/04 12:16:08;;;;;;;1.48;1.38;;;28.30;54.60;;;;;;5014819;28;20398;-86
2022/09/04 12:19:03;;;;;;;1.38;1.25;;;28.30;54.50;;;;;;5015975;28;20029;-86
2022/09/04 12:21:52;;;;;;;1.70;1.38;;;28.30;54.30;;;;;;5033483;28;20025;-85
2022/09/04 12:24:39;;;;;;;1.52;1.42;;;28.40;54.30;;;;;;5036613;28;20034;-86
2022/09/04 12:27:10;;;;;;;;;;;28.40;54.10;;;;;;5035806;28;20033;-87
2022/09/04 12:30:11;;;;;;;1.63;1.00;;;28.40;54.00;;;;;;5051939;28;19999;-86
2022/09/04 12:32:53;;;;;;;1.20;1.10;;;28.40;53.90;;;;;;5049081;28;20405;-85
2022/09/04 12:35:59;;;;;;;1.30;1.20;;;28.50;53.90;;;;;;5035488;28;20033;-86
2022/09/04 12:39:09;;;;;;;1.67;1.40;;;28.50;53.90;;;;;;5036674;28;20083;-86
2022/09/04 12:41:48;;;;;;;1.73;1.40;;;28.50;53.90;;;;;;5043585;28;20048;-87
2022/09/04 12:44:43;;;;;;;1.40;1.30;;;28.50;53.80;;;;;;5035523;28;20055;-86
2022/09/04 12:47:33;;;;;;;1.23;1.13;;;28.50;53.80;;;;;;5035343;28;20065;-87
2022/09/04 12:50:15;;;;;;;1.50;1.40;;;28.60;53.90;;;;;;5036094;28;20466;-85
2022/09/04 12:52:59;;;;;;;1.50;1.20;;;28.60;53.80;;;;;;5018540;28;20033;-86
2022/09/04 12:55:33;;;;;;;;;;;28.70;53.70;;;;;;5035355;28;20087;-87
2022/09/04 12:58:20;;;;;;;1.10;1.00;;;28.70;53.60;;;;;;5051407;28;19955;-85
2022/09/04 13:01:09;;;;;;;1.30;1.10;;;28.70;53.50;;;;;;5034916;28;20079;-86
2022/09/04 13:03:58;;;;;;;1.52;1.40;;;28.70;53.60;;;;;;5018300;28;20060;-86
2022/09/04 13:06:26;;;;;;;1.45;1.30;;;28.80;53.60;;;;;;5035367;28;20037;-86
2022/09/04 13:09:10;;;;;;;1.63;1.20;;;28.80;53.40;;;;;;5018581;28;20025;-84
2022/09/04 13:11:50;;;;;;;1.30;1.20;;;28.80;53.40;;;;;;5036002;28;20039;-87
2022/09/04 13:14:41;;;;;;;1.30;1.20;;;28.90;53.50;;;;;;5035462;28;20029;-87
2022/09/04 13:17:27;;;;;;;3.47;1.20;;;28.90;53.50;;;;;;5035716;28;20130;-85
2022/09/04 13:20:15;;;;;;;1.42;1.33;;;28.90;53.20;;;;;;5035192;28;20486;-87
2022/09/04 13:23:16;;;;;;;1.42;1.17;;;28.90;53.30;;;;;;5034925;28;20359;-86
2022/09/04 13:26:19;;;;;;;1.67;1.30;;;29.00;53.20;;;;;;5034843;28;20033;-86
2022/09/04 13:29:14;;;;;;;1.23;1.13;;;29.00;53.20;;;;;;5035207;28;20048;-87
2022/09/04 13:32:21;;;;;;;1.20;1.10;;;29.10;53.10;;;;;;5035855;28;20025;-88
2022/09/04 13:35:25;;;;;;;1.17;1.08;;;29.10;53.10;;;;;;5033735;28;20045;-87
2022/09/04 13:38:20;;;;;;;1.30;1.20;;;29.10;53.00;;;;;;5034511;28;20036;-83
2022/09/04 13:41:08;;;;;;;0.93;0.93;;;29.10;52.90;;;;;;5034942;28;20530;-82
2022/09/04 13:43:48;;;;;;;1.30;1.20;;;29.20;53.00;;;;;;5033927;28;20124;-84
2022/09/04 13:46:19;;;;;;;1.10;1.00;;;29.20;53.00;;;;;;5034771;28;20034;-85
2022/09/04 13:48:54;;;;;;;1.10;1.00;;;29.20;52.90;;;;;;5018399;28;20060;-84
2022/09/04 13:51:29;;;;;;;1.15;1.05;;;29.20;52.90;;;;;;5034672;28;20103;-84
2022/09/04 13:54:01;;;;;;;1.48;1.30;;;29.30;52.80;;;;;;5034327;28;20048;-83
2022/09/04 13:57:06;;;;;;;1.27;1.17;;;29.30;52.70;;;;;;5035472;28;20037;-86
2022/09/04 13:59:33;;;;;;;1.33;1.13;;;29.30;52.70;;;;;;5047702;28;20478;-86
2022/09/04 14:02:03;;;;;;;1.23;1.13;;;29.40;52.60;;;;;;5035497;28;20025;-86
2022/09/04 14:04:36;;;;;;;0.90;0.90;;;29.40;52.60;;;;;;5033615;28;20033;-84
2022/09/04 14:07:08;;;;;;;1.35;1.08;;;29.40;52.60;;;;;;5034434;28;20033;-83
2022/09/04 14:09:40;;;;;;;1.23;1.13;;;29.40;52.50;;;;;;5034939;28;20026;-88
2022/09/04 14:12:32;;;;;;;1.20;1.10;;;29.40;52.50;;;;;;5035147;28;20029;-84
2022/09/04 14:15:12;;;;;;;1.55;1.20;;;29.50;52.40;;;;;;5037585;28;20025;-84
2022/09/04 14:18:23;;;;;;;1.23;1.10;;;29.50;52.40;;;;;;5034900;28;20124;-87
2022/09/04 14:20:58;;;;;;;0.90;0.90;;;29.50;52.40;;;;;;5013223;28;20029;-83
2022/09/04 14:23:51;;;;;;;1.20;1.10;;;29.50;52.20;;;;;;5031644;28;20057;-83
2022/09/04 14:26:20;;;;;;;1.13;1.02;;;29.60;52.20;;;;;;5034407;28;20033;-83
2022/09/04 14:29:20;;;;;;;1.17;1.08;;;29.60;52.10;;;;;;5034592;28;20031;-84
2022/09/04 14:32:17;;;;;;;1.08;0.98;;;29.60;52.10;;;;;;5033798;28;20030;-84
2022/09/04 14:34:54;;;;;;;0.90;0.90;;;29.60;52.00;;;;;;5033370;28;20064;-83